New York/Central Park, New York
Current Conditions -  °F | °C
As of 12:51 PM on Wednesday 28 Jan 2015 (Local Time) from KNYC Reporting Station
Clear Clear  
Wind Chill: 20°   Ceiling: Unl
Heat Index: 30°   Visibility: 10mi
Dew Point:   Wind: 14mph
Humidity: 38%   Direction: 310°NW
Pressure: 30.07"   Gusts: 21mph
Location:  40.79°N, 73.96°W
Report Text: KNYC 281751Z AUTO 31012G18KT 10SM CLR M01/M14 A3007 RMK AO2 SLP175 T10111139 11011 21083 50003
Loading
Personal Weather Stations






























Interactive Weather Map New forecast layout! Learn more

10-Day Weather Forecast

Advertisements
Track Severe Weather on mobile